createdAt,value
2019-04-22T00:00:45.362Z,1010.07
2019-04-22T00:01:45.552Z,1010.05
2019-04-22T00:02:51.559Z,1010.10
2019-04-22T00:03:52.689Z,1010.06
2019-04-22T00:04:56.127Z,1010.04
2019-04-22T00:06:06.675Z,1010.02
2019-04-22T00:08:09.037Z,1009.99
2019-04-22T00:09:13.805Z,1009.99
2019-04-22T00:10:15.836Z,1009.94
2019-04-22T00:11:13.236Z,1009.96
2019-04-22T00:12:14.535Z,1009.88
2019-04-22T00:13:11.335Z,1009.96
2019-04-22T00:14:08.470Z,1009.92
2019-04-22T00:15:04.024Z,1009.90
2019-04-22T00:16:10.486Z,1009.89
2019-04-22T00:17:19.873Z,1009.91
2019-04-22T00:18:16.191Z,1009.85
2019-04-22T00:19:15.342Z,1009.85
2019-04-22T00:20:10.203Z,1009.84
2019-04-22T00:22:18.220Z,1009.81
2019-04-22T00:23:04.747Z,1009.79
2019-04-22T00:24:11.986Z,1009.76
2019-04-22T00:25:11.871Z,1009.75
2019-04-22T00:26:11.344Z,1009.76
2019-04-22T00:27:14.398Z,1009.74
2019-04-22T00:28:12.778Z,1009.77
2019-04-22T00:29:34.244Z,1009.73
2019-04-22T00:30:18.123Z,1009.72
2019-04-22T00:31:09.832Z,1009.69
2019-04-22T00:32:05.070Z,1009.71
2019-04-22T00:33:07.858Z,1009.66
2019-04-22T00:34:06.758Z,1009.67
2019-04-22T00:35:07.291Z,1009.65
2019-04-22T00:36:08.883Z,1009.64
2019-04-22T00:37:08.004Z,1009.59
2019-04-22T00:38:13.696Z,1009.61
2019-04-22T00:39:18.505Z,1009.62
2019-04-22T00:40:07.241Z,1009.63
2019-04-22T00:41:17.472Z,1009.56
2019-04-22T00:42:08.130Z,1009.61
2019-04-22T00:43:06.447Z,1009.60
2019-04-22T00:44:12.385Z,1009.56
2019-04-22T00:45:11.848Z,1009.58
2019-04-22T00:46:11.385Z,1009.55
2019-04-22T00:47:12.183Z,1009.56
2019-04-22T00:48:17.956Z,1009.52
2019-04-22T00:49:55.412Z,1009.51
2019-04-22T00:50:24.102Z,1009.52
2019-04-22T00:51:14.175Z,1009.49
2019-04-22T00:52:09.807Z,1009.48
2019-04-22T00:53:09.026Z,1009.51
2019-04-22T00:54:06.042Z,1009.47
2019-04-22T00:55:12.350Z,1009.49
2019-04-22T00:56:11.011Z,1009.47
2019-04-22T00:57:09.152Z,1009.47
2019-04-22T00:58:12.325Z,1009.46
2019-04-22T00:59:07.105Z,1009.45
2019-04-22T01:00:11.889Z,1009.45
2019-04-22T01:01:12.155Z,1009.48
2019-04-22T01:02:15.035Z,1009.44
2019-04-22T01:03:10.973Z,1009.42
2019-04-22T01:04:14.343Z,1009.42
2019-04-22T01:05:11.536Z,1009.37
2019-04-22T01:06:09.773Z,1009.38
2019-04-22T01:07:04.091Z,1009.39
2019-04-22T01:08:17.761Z,1009.37
2019-04-22T01:09:25.399Z,1009.35
2019-04-22T01:10:11.671Z,1009.37
2019-04-22T01:11:14.951Z,1009.33
2019-04-22T01:12:08.247Z,1009.32
2019-04-22T01:13:04.832Z,1009.33
2019-04-22T01:14:06.601Z,1009.33
2019-04-22T01:15:07.352Z,1009.32
2019-04-22T01:16:13.907Z,1009.33
2019-04-22T01:17:06.546Z,1009.35
2019-04-22T01:18:02.176Z,1009.34
2019-04-22T01:19:09.900Z,1009.31
2019-04-22T01:20:17.543Z,1009.35
2019-04-22T01:21:17.720Z,1009.33
2019-04-22T01:22:12.559Z,1009.30
2019-04-22T01:23:09.603Z,1009.32
2019-04-22T01:24:05.852Z,1009.27
2019-04-22T01:25:02.404Z,1009.24
2019-04-22T01:26:03.250Z,1009.25
2019-04-22T01:26:57.679Z,1009.22
2019-04-22T01:27:58.336Z,1009.20
2019-04-22T01:28:59.266Z,1009.19
2019-04-22T01:29:55.515Z,1009.16
2019-04-22T01:30:51.706Z,1009.13
2019-04-22T01:31:45.628Z,1009.16
2019-04-22T01:32:47.250Z,1009.13
2019-04-22T01:33:49.727Z,1009.13
2019-04-22T01:34:57.545Z,1009.12
2019-04-22T01:36:02.741Z,1009.10
2019-04-22T01:37:03.418Z,1009.10
2019-04-22T01:38:01.703Z,1009.10
2019-04-22T01:39:05.415Z,1009.08
2019-04-22T01:40:14.853Z,1009.11
2019-04-22T01:41:07.055Z,1009.04
2019-04-22T01:42:05.659Z,1009.04
2019-04-22T01:43:08.697Z,1009.05
2019-04-22T01:44:16.458Z,1009.02
2019-04-22T01:45:10.707Z,1009.00
2019-04-22T01:46:08.338Z,1009.00
2019-04-22T01:47:12.864Z,1009.05
2019-04-22T01:48:10.923Z,1008.96
2019-04-22T01:49:11.215Z,1008.97
2019-04-22T01:50:10.158Z,1008.95
2019-04-22T01:51:02.329Z,1009.02
2019-04-22T01:52:12.753Z,1008.94
2019-04-22T01:54:15.083Z,1008.95
2019-04-22T01:55:18.894Z,1008.93
2019-04-22T01:56:11.862Z,1008.92
2019-04-22T01:57:04.877Z,1008.97
2019-04-22T01:58:06.673Z,1008.93
2019-04-22T01:58:59.210Z,1008.93
2019-04-22T02:00:00.825Z,1008.90
2019-04-22T02:01:04.924Z,1008.89
2019-04-22T02:02:10.582Z,1008.86
2019-04-22T02:03:12.556Z,1008.90
2019-04-22T02:04:07.772Z,1008.84
2019-04-22T02:05:12.539Z,1008.83
2019-04-22T02:06:05.788Z,1008.82
2019-04-22T02:07:09.354Z,1008.80
2019-04-22T02:08:16.113Z,1008.83
2019-04-22T02:09:19.760Z,1008.83
2019-04-22T02:10:14.077Z,1008.82
2019-04-22T02:11:07.720Z,1008.82
2019-04-22T02:12:30.434Z,1008.81
2019-04-22T02:13:06.976Z,1008.80
2019-04-22T02:14:11.930Z,1008.82
2019-04-22T02:15:06.368Z,1008.75
2019-04-22T02:16:10.090Z,1008.77
2019-04-22T02:17:09.182Z,1008.77
2019-04-22T02:18:17.834Z,1008.79
2019-04-22T02:19:13.168Z,1008.76
2019-04-22T02:21:07.310Z,1008.73
2019-04-22T02:22:11.450Z,1008.76
2019-04-22T02:23:33.543Z,1008.70
2019-04-22T02:24:15.932Z,1008.73
2019-04-22T02:25:08.353Z,1008.68
2019-04-22T02:26:07.659Z,1008.64
2019-04-22T02:27:10.747Z,1008.66
2019-04-22T02:28:17.914Z,1008.69
2019-04-22T02:29:07.671Z,1008.67
2019-04-22T02:30:05.864Z,1008.65
2019-04-22T02:32:21.609Z,1008.66
2019-04-22T02:33:41.291Z,1008.62
2019-04-22T02:35:25.299Z,1008.63
2019-04-22T02:36:22.921Z,1008.64
2019-04-22T02:37:17.097Z,1008.61
2019-04-22T02:38:19.667Z,1008.64
2019-04-22T02:39:16.239Z,1008.59
2019-04-22T02:40:09.596Z,1008.56
2019-04-22T02:41:23.185Z,1008.58
2019-04-22T02:42:10.777Z,1008.51
2019-04-22T02:43:26.120Z,1008.52
2019-04-22T02:44:13.587Z,1008.53
2019-04-22T02:45:07.658Z,1008.48
2019-04-22T02:48:26.521Z,1008.46
2019-04-22T02:51:17.093Z,1008.44
2019-04-22T02:52:19.998Z,1008.42
2019-04-22T02:53:13.870Z,1008.39
2019-04-22T02:55:17.147Z,1008.38
2019-04-22T02:56:25.624Z,1008.40
2019-04-22T02:58:12.560Z,1008.35
2019-04-22T03:00:21.842Z,1008.35
2019-04-22T03:01:31.391Z,1008.36
2019-04-22T03:02:14.946Z,1008.35
2019-04-22T03:03:21.185Z,1008.34
2019-04-22T03:04:10.907Z,1008.30
2019-04-22T03:05:19.590Z,1008.28
2019-04-22T03:07:03.575Z,1008.26
2019-04-22T03:08:15.131Z,1008.29
2019-04-22T03:10:18.853Z,1008.25
2019-04-22T03:13:21.379Z,1008.25
2019-04-22T03:14:22.903Z,1008.24
2019-04-22T03:15:07.862Z,1008.19
2019-04-22T03:16:20.885Z,1008.21
2019-04-22T03:17:15.953Z,1008.22
2019-04-22T03:18:27.364Z,1008.22
2019-04-22T03:19:26.035Z,1008.20
2019-04-22T03:21:12.180Z,1008.20
2019-04-22T03:22:17.028Z,1008.18
2019-04-22T03:23:25.398Z,1008.17
2019-04-22T03:24:25.749Z,1008.15
2019-04-22T03:25:42.304Z,1008.16
2019-04-22T03:27:08.102Z,1008.13
2019-04-22T03:28:10.252Z,1008.16
2019-04-22T03:29:28.157Z,1008.11
2019-04-22T03:31:21.458Z,1008.16
2019-04-22T03:34:54.748Z,1008.08
2019-04-22T03:36:48.406Z,1008.09
2019-04-22T03:38:12.374Z,1008.12
2019-04-22T03:39:28.239Z,1008.13
2019-04-22T03:41:29.230Z,1008.13
2019-04-22T03:44:24.833Z,1008.09
2019-04-22T03:46:03.337Z,1008.09
2019-04-22T03:47:19.429Z,1008.06
2019-04-22T03:50:25.494Z,1008.05
2019-04-22T03:51:43.439Z,1008.05
2019-04-22T03:52:25.306Z,1008.04
2019-04-22T03:53:27.978Z,1008.06
2019-04-22T03:56:56.519Z,1008.01
2019-04-22T03:58:21.551Z,1007.99
2019-04-22T03:59:33.489Z,1008.00
2019-04-22T04:00:35.665Z,1007.97
2019-04-22T04:01:36.920Z,1007.98
2019-04-22T04:02:33.568Z,1008.01
2019-04-22T04:03:19.121Z,1007.94
2019-04-22T04:04:32.642Z,1007.92
2019-04-22T04:06:34.676Z,1007.98
2019-04-22T04:09:39.093Z,1008.00
2019-04-22T04:11:32.215Z,1008.02
2019-04-22T04:12:47.130Z,1007.99
2019-04-22T04:13:27.520Z,1008.02
2019-04-22T04:14:27.014Z,1007.99
2019-04-22T04:15:24.846Z,1007.97
2019-04-22T04:16:34.973Z,1008.01
2019-04-22T04:17:29.631Z,1008.00
2019-04-22T04:18:21.074Z,1008.00
2019-04-22T04:19:34.492Z,1007.97
2019-04-22T04:20:28.596Z,1007.99
2019-04-22T04:22:52.237Z,1007.96
2019-04-22T04:23:38.373Z,1007.96
2019-04-22T04:25:38.109Z,1007.97
2019-04-22T04:26:37.256Z,1008.00
2019-04-22T04:28:39.776Z,1007.93
2019-04-22T04:31:32.731Z,1007.93
2019-04-22T04:32:34.397Z,1007.91
2019-04-22T04:33:23.550Z,1007.92
2019-04-22T04:34:43.155Z,1007.93
2019-04-22T04:35:33.167Z,1007.93
2019-04-22T04:36:31.678Z,1007.90
2019-04-22T04:38:24.484Z,1007.85
2019-04-22T04:39:28.829Z,1007.89
2019-04-22T04:40:26.401Z,1007.87
2019-04-22T04:43:26.258Z,1007.88
2019-04-22T04:44:35.097Z,1007.89
2019-04-22T04:46:37.649Z,1007.88
2019-04-22T04:48:32.631Z,1007.89
2019-04-22T04:49:34.991Z,1007.86
2019-04-22T04:50:18.443Z,1007.91
2019-04-22T04:51:37.705Z,1007.92
2019-04-22T04:52:39.743Z,1007.93
2019-04-22T04:54:31.220Z,1007.95
2019-04-22T04:55:28.871Z,1007.95
2019-04-22T04:56:29.641Z,1007.89
2019-04-22T04:58:36.578Z,1007.94
2019-04-22T05:02:30.491Z,1007.98
2019-04-22T05:03:32.861Z,1007.91
2019-04-22T05:07:27.807Z,1007.92
2019-04-22T05:08:48.866Z,1007.92
2019-04-22T05:09:21.545Z,1007.92
2019-04-22T05:10:39.110Z,1007.92
2019-04-22T05:12:34.371Z,1007.92
2019-04-22T05:13:26.038Z,1007.89
2019-04-22T05:15:27.692Z,1007.85
2019-04-22T05:16:33.515Z,1007.87
2019-04-22T05:17:25.233Z,1007.91
2019-04-22T05:18:19.868Z,1007.86
2019-04-22T05:19:22.543Z,1007.89
2019-04-22T05:21:17.909Z,1007.89
2019-04-22T05:22:23.206Z,1007.88
2019-04-22T05:23:25.555Z,1007.85
2019-04-22T05:24:22.712Z,1007.88
2019-04-22T05:25:19.525Z,1007.84
2019-04-22T05:26:32.804Z,1007.84
2019-04-22T05:28:17.319Z,1007.85
2019-04-22T05:29:23.477Z,1007.80
2019-04-22T05:30:34.282Z,1007.81
2019-04-22T05:32:20.887Z,1007.95
2019-04-22T05:33:14.263Z,1008.02
2019-04-22T05:34:28.123Z,1008.12
2019-04-22T05:35:23.036Z,1008.22
2019-04-22T05:36:20.339Z,1008.33
2019-04-22T05:37:22.180Z,1008.40
2019-04-22T05:38:30.231Z,1008.41
2019-04-22T05:39:17.273Z,1008.45
2019-04-22T05:41:17.710Z,1008.54
2019-04-22T05:42:18.667Z,1008.55
2019-04-22T05:43:19.136Z,1008.62
2019-04-22T05:44:14.613Z,1008.56
2019-04-22T05:46:19.785Z,1008.59
2019-04-22T05:47:20.608Z,1008.54
2019-04-22T05:48:20.217Z,1008.56
2019-04-22T05:49:34.739Z,1008.52
2019-04-22T05:51:25.757Z,1008.56
2019-04-22T05:52:04.982Z,1008.62
2019-04-22T05:53:00.488Z,1008.62
2019-04-22T05:54:12.450Z,1008.59
2019-04-22T05:55:08.231Z,1008.56
2019-04-22T05:56:12.729Z,1008.49
2019-04-22T05:57:09.338Z,1008.54
2019-04-22T05:59:14.695Z,1008.59
2019-04-22T06:00:07.880Z,1008.52
2019-04-22T06:01:29.113Z,1008.11
2019-04-22T06:02:13.610Z,1008.11
2019-04-22T06:03:06.501Z,1008.29
2019-04-22T06:04:09.859Z,1008.16
2019-04-22T06:05:11.930Z,1008.21
2019-04-22T06:06:09.036Z,1008.20
2019-04-22T06:08:03.914Z,1008.45
2019-04-22T06:09:05.214Z,1008.37
2019-04-22T06:10:11.625Z,1008.42
2019-04-22T06:11:10.141Z,1008.55
2019-04-22T06:11:59.053Z,1008.59
2019-04-22T06:13:02.203Z,1008.62
2019-04-22T06:16:38.026Z,1008.49
2019-04-22T06:17:37.934Z,1008.49
2019-04-22T06:18:33.495Z,1008.43
2019-04-22T06:19:31.328Z,1008.49
2019-04-22T06:20:32.508Z,1008.43
2019-04-22T06:21:38.378Z,1008.42
2019-04-22T06:22:50.994Z,1008.39
2019-04-22T06:23:48.279Z,1008.41
2019-04-22T06:24:31.206Z,1008.42
2019-04-22T06:25:55.447Z,1008.42
2019-04-22T06:26:45.918Z,1008.47
2019-04-22T06:27:37.076Z,1008.48
2019-04-22T06:28:51.879Z,1008.42
2019-04-22T06:29:31.997Z,1008.43
2019-04-22T06:30:36.029Z,1008.50
2019-04-22T06:31:52.128Z,1008.49
2019-04-22T06:32:32.849Z,1008.20
2019-04-22T06:33:34.604Z,1008.02
2019-04-22T06:34:38.573Z,1008.05
2019-04-22T06:36:43.124Z,1008.06
2019-04-22T06:37:37.980Z,1008.04
2019-04-22T06:38:57.126Z,1008.00
2019-04-22T06:39:34.468Z,1008.20
2019-04-22T06:40:31.537Z,1008.28
2019-04-22T06:41:36.381Z,1008.21
2019-04-22T06:42:36.245Z,1008.27
2019-04-22T06:43:34.941Z,1008.38
2019-04-22T06:45:51.831Z,1008.36
2019-04-22T06:46:33.570Z,1008.34
2019-04-22T06:47:44.060Z,1008.41
2019-04-22T06:48:33.254Z,1008.17
2019-04-22T06:49:35.879Z,1008.18
2019-04-22T06:50:36.800Z,1007.99
2019-04-22T06:51:32.760Z,1008.01
2019-04-22T06:52:36.583Z,1007.94
2019-04-22T06:53:34.455Z,1007.95
2019-04-22T06:54:32.580Z,1007.95
2019-04-22T06:55:35.762Z,1008.02
2019-04-22T06:56:27.365Z,1007.93
2019-04-22T06:57:30.503Z,1007.93
2019-04-22T06:58:36.906Z,1007.85
2019-04-22T06:59:34.429Z,1007.82
2019-04-22T07:01:38.021Z,1007.83
2019-04-22T07:02:47.160Z,1007.83
2019-04-22T07:03:42.744Z,1007.86
2019-04-22T07:04:36.406Z,1007.86
2019-04-22T07:05:32.838Z,1007.88
2019-04-22T07:06:37.275Z,1007.93
2019-04-22T07:07:34.547Z,1007.93
2019-04-22T07:09:35.059Z,1007.89
2019-04-22T07:10:35.145Z,1007.89
2019-04-22T07:11:33.905Z,1007.89
2019-04-22T07:14:29.800Z,1007.94
2019-04-22T07:17:38.091Z,1007.94
2019-04-22T07:19:36.211Z,1008.00
2019-04-22T07:21:33.569Z,1008.00
2019-04-22T07:22:45.575Z,1008.05
2019-04-22T07:23:33.104Z,1007.99
2019-04-22T07:24:40.440Z,1008.02
2019-04-22T07:25:36.380Z,1007.99
2019-04-22T07:26:29.065Z,1007.89
2019-04-22T07:27:48.965Z,1007.99
2019-04-22T07:28:46.607Z,1007.92
2019-04-22T07:29:32.733Z,1007.96
2019-04-22T07:30:31.381Z,1008.00
2019-04-22T07:31:49.546Z,1008.00
2019-04-22T07:32:54.910Z,1007.91
2019-04-22T07:35:37.197Z,1007.90
2019-04-22T07:36:45.574Z,1007.91
2019-04-22T07:37:37.154Z,1007.83
2019-04-22T07:39:35.557Z,1008.00
2019-04-22T07:40:34.132Z,1007.82
2019-04-22T07:41:33.155Z,1007.84
2019-04-22T07:42:31.064Z,1007.80
2019-04-22T07:43:53.094Z,1007.80
2019-04-22T07:44:42.764Z,1007.84
2019-04-22T07:45:36.213Z,1007.88
2019-04-22T07:46:35.448Z,1007.89
2019-04-22T07:47:37.795Z,1007.85
2019-04-22T07:48:38.335Z,1008.06
2019-04-22T07:50:42.799Z,1008.03
2019-04-22T07:51:33.298Z,1008.00
2019-04-22T07:52:35.267Z,1007.94
2019-04-22T07:53:29.026Z,1008.02
2019-04-22T07:54:34.665Z,1008.08
2019-04-22T07:55:32.723Z,1007.90
2019-04-22T07:56:31.731Z,1007.83
2019-04-22T07:57:32.721Z,1007.94
2019-04-22T07:58:29.236Z,1007.88
2019-04-22T07:59:38.298Z,1007.81
2019-04-22T08:00:34.192Z,1007.78
2019-04-22T08:01:32.511Z,1007.71
2019-04-22T08:02:42.254Z,1007.75
2019-04-22T08:03:37.628Z,1007.71
2019-04-22T08:04:52.848Z,1007.66
2019-04-22T08:05:38.233Z,1007.68
2019-04-22T08:06:29.300Z,1007.68
2019-04-22T08:07:34.570Z,1007.71
2019-04-22T08:08:28.782Z,1007.68
2019-04-22T08:09:38.078Z,1007.65
2019-04-22T08:10:40.106Z,1007.66
2019-04-22T08:11:44.523Z,1007.65
2019-04-22T08:12:36.563Z,1007.69
2019-04-22T08:13:41.059Z,1007.62
2019-04-22T08:14:36.045Z,1007.61
2019-04-22T08:15:33.411Z,1007.60
2019-04-22T08:16:28.499Z,1007.65
2019-04-22T08:18:37.348Z,1007.63
2019-04-22T08:19:40.473Z,1007.66
2019-04-22T08:20:35.066Z,1007.74
2019-04-22T08:21:29.896Z,1007.60
2019-04-22T08:22:27.380Z,1007.71
2019-04-22T08:23:31.678Z,1007.74
2019-04-22T08:24:35.938Z,1007.67
2019-04-22T08:25:31.498Z,1007.63
2019-04-22T08:26:36.398Z,1007.65
2019-04-22T08:27:30.198Z,1007.66
2019-04-22T08:28:50.869Z,1007.61
2019-04-22T08:29:43.815Z,1007.66
2019-04-22T08:30:33.799Z,1007.78
2019-04-22T08:31:38.518Z,1007.67
2019-04-22T08:32:34.590Z,1007.62
2019-04-22T08:34:35.756Z,1007.53
2019-04-22T08:35:40.892Z,1007.53
2019-04-22T08:36:36.367Z,1007.55
2019-04-22T08:38:36.746Z,1007.48
2019-04-22T08:39:32.763Z,1007.46
2019-04-22T08:40:36.427Z,1007.48
2019-04-22T08:41:33.518Z,1007.42
2019-04-22T08:42:43.498Z,1007.41
2019-04-22T08:43:36.411Z,1007.46
2019-04-22T08:44:53.410Z,1007.39
2019-04-22T08:45:31.783Z,1007.39
2019-04-22T08:46:34.142Z,1007.36
2019-04-22T08:47:32.246Z,1007.33
2019-04-22T08:48:33.071Z,1007.32
2019-04-22T08:49:39.095Z,1007.46
2019-04-22T08:50:33.499Z,1007.38
2019-04-22T08:51:31.063Z,1007.30
2019-04-22T08:52:33.795Z,1007.31
2019-04-22T08:53:31.821Z,1007.37
2019-04-22T08:54:29.752Z,1007.35
2019-04-22T08:55:32.786Z,1007.30
2019-04-22T08:56:33.675Z,1007.36
2019-04-22T08:57:47.007Z,1007.35
2019-04-22T08:58:31.219Z,1007.31
2019-04-22T08:59:28.323Z,1007.33
2019-04-22T09:00:41.384Z,1007.28
2019-04-22T09:01:30.075Z,1007.27
2019-04-22T09:02:36.975Z,1007.26
2019-04-22T09:03:31.316Z,1007.32
2019-04-22T09:04:22.811Z,1007.40
2019-04-22T09:05:50.591Z,1007.40
2019-04-22T09:06:47.850Z,1007.27
2019-04-22T09:07:31.529Z,1007.24
2019-04-22T09:08:35.761Z,1007.21
2019-04-22T09:09:34.045Z,1007.20
2019-04-22T09:10:36.232Z,1007.30
2019-04-22T09:11:35.277Z,1007.31
2019-04-22T09:12:50.109Z,1007.32
2019-04-22T09:13:38.466Z,1007.27
2019-04-22T09:15:31.142Z,1007.22
2019-04-22T09:16:37.688Z,1007.35
2019-04-22T09:17:47.367Z,1007.37
2019-04-22T09:18:34.533Z,1007.41
2019-04-22T09:19:31.565Z,1007.46
2019-04-22T09:20:32.883Z,1007.41
2019-04-22T09:22:28.092Z,1007.47
2019-04-22T09:23:36.870Z,1007.56
2019-04-22T09:24:29.638Z,1007.51
2019-04-22T09:25:32.737Z,1007.51
2019-04-22T09:28:32.268Z,1007.21
2019-04-22T09:29:33.798Z,1007.19
2019-04-22T09:30:34.470Z,1007.12
2019-04-22T09:31:33.706Z,1007.14
2019-04-22T09:32:34.431Z,1007.14
2019-04-22T09:33:32.210Z,1007.31
2019-04-22T09:34:35.447Z,1007.15
2019-04-22T09:35:34.371Z,1007.08
2019-04-22T09:37:38.040Z,1007.17
2019-04-22T09:45:04.671Z,1007.28
2019-04-22T09:45:58.751Z,1007.35
2019-04-22T09:47:05.114Z,1007.34
2019-04-22T09:49:06.407Z,1007.32
2019-04-22T09:50:03.846Z,1007.27
2019-04-22T09:50:59.107Z,1007.29
2019-04-22T09:52:08.428Z,1007.29
2019-04-22T09:53:03.556Z,1007.30
2019-04-22T09:54:06.000Z,1007.30
2019-04-22T09:55:09.569Z,1007.25
2019-04-22T09:56:03.831Z,1007.21
2019-04-22T09:57:04.032Z,1007.23
2019-04-22T09:58:05.818Z,1007.19
2019-04-22T09:59:20.473Z,1007.16
2019-04-22T10:00:02.315Z,1007.14
2019-04-22T10:01:03.015Z,1007.13
2019-04-22T10:02:13.378Z,1007.11
2019-04-22T10:04:01.016Z,1007.08
2019-04-22T10:06:09.887Z,1006.99
2019-04-22T10:07:01.041Z,1006.99
2019-04-22T10:08:13.353Z,1006.99
2019-04-22T10:11:04.731Z,1006.90
2019-04-22T10:12:02.805Z,1006.97
2019-04-22T10:13:10.507Z,1006.83
2019-04-22T10:14:59.818Z,1006.91
2019-04-22T10:16:03.874Z,1006.86
2019-04-22T10:16:59.945Z,1006.85
2019-04-22T10:18:02.865Z,1006.75
2019-04-22T10:19:04.220Z,1006.84
2019-04-22T10:20:00.614Z,1006.82
2019-04-22T10:21:00.618Z,1006.79
2019-04-22T10:22:02.943Z,1006.73
2019-04-22T10:22:57.415Z,1006.71
2019-04-22T10:24:03.354Z,1006.78
2019-04-22T10:25:08.254Z,1006.78
2019-04-22T10:26:05.297Z,1006.72
2019-04-22T10:27:14.054Z,1006.75
2019-04-22T10:28:08.909Z,1006.63
2019-04-22T10:29:08.755Z,1006.68
2019-04-22T10:29:59.802Z,1006.66
2019-04-22T10:31:00.418Z,1006.65
2019-04-22T10:32:00.791Z,1006.62
2019-04-22T10:33:02.526Z,1006.61
2019-04-22T10:33:49.636Z,1006.58
2019-04-22T10:34:44.038Z,1006.52
2019-04-22T10:35:37.313Z,1006.57
2019-04-22T10:36:37.712Z,1006.55
2019-04-22T10:37:36.548Z,1006.54
2019-04-22T10:38:36.768Z,1006.40
2019-04-22T10:39:45.184Z,1006.47
2019-04-22T10:40:36.411Z,1006.48
2019-04-22T10:41:36.659Z,1006.47
2019-04-22T10:42:35.909Z,1006.41
2019-04-22T10:43:37.061Z,1006.39
2019-04-22T10:44:37.200Z,1006.39
2019-04-22T10:45:36.241Z,1006.39
2019-04-22T10:46:36.079Z,1006.39
2019-04-22T10:47:36.085Z,1006.31
2019-04-22T10:48:36.584Z,1006.31
2019-04-22T10:49:36.208Z,1006.35
2019-04-22T10:50:36.348Z,1006.36
2019-04-22T10:51:36.897Z,1006.33
2019-04-22T10:52:37.188Z,1006.33
2019-04-22T10:53:35.897Z,1006.37
2019-04-22T10:54:35.897Z,1006.34
2019-04-22T10:55:37.186Z,1006.31
2019-04-22T10:56:36.941Z,1006.36
2019-04-22T10:57:36.046Z,1006.37
2019-04-22T10:58:35.895Z,1006.35
2019-04-22T10:59:36.383Z,1006.42
2019-04-22T11:00:35.890Z,1006.39
2019-04-22T11:01:38.464Z,1006.38
2019-04-22T11:02:37.171Z,1006.37
2019-04-22T11:03:37.290Z,1006.36
2019-04-22T11:04:36.427Z,1006.34
2019-04-22T11:05:35.879Z,1006.37
2019-04-22T11:06:42.937Z,1006.35
2019-04-22T11:07:42.316Z,1006.33
2019-04-22T11:08:44.478Z,1006.45
2019-04-22T11:09:47.673Z,1006.36
2019-04-22T11:10:51.938Z,1006.41
2019-04-22T11:11:46.720Z,1006.34
2019-04-22T11:12:37.642Z,1006.31
2019-04-22T11:13:35.997Z,1006.32
2019-04-22T11:14:37.201Z,1006.31
2019-04-22T11:15:37.062Z,1006.34
2019-04-22T11:16:37.201Z,1006.36
2019-04-22T11:17:35.869Z,1006.41
2019-04-22T11:18:35.869Z,1006.39
2019-04-22T11:19:37.299Z,1006.40
2019-04-22T11:20:35.866Z,1006.38
2019-04-22T11:21:36.034Z,1006.36
2019-04-22T11:22:37.373Z,1006.35
2019-04-22T11:23:36.442Z,1006.29
2019-04-22T11:24:36.932Z,1006.36
2019-04-22T11:25:36.219Z,1006.48
2019-04-22T11:26:36.842Z,1006.46
2019-04-22T11:27:37.127Z,1006.47
2019-04-22T11:28:35.975Z,1006.53
2019-04-22T11:29:37.421Z,1006.49
2019-04-22T11:30:36.693Z,1006.43
2019-04-22T11:31:36.575Z,1006.44
2019-04-22T11:32:36.227Z,1006.47
2019-04-22T11:33:36.387Z,1006.48
2019-04-22T11:34:37.487Z,1006.51
2019-04-22T11:35:35.830Z,1006.48
2019-04-22T11:36:37.056Z,1006.45
2019-04-22T11:37:36.752Z,1006.63
2019-04-22T11:38:37.746Z,1006.64
2019-04-22T11:39:36.701Z,1006.51
2019-04-22T11:40:40.356Z,1006.45
2019-04-22T11:41:36.259Z,1006.37
2019-04-22T11:42:36.327Z,1006.37
2019-04-22T11:43:36.212Z,1006.45
2019-04-22T11:44:37.112Z,1006.47
2019-04-22T11:45:37.079Z,1006.32
2019-04-22T11:46:35.797Z,1005.86
2019-04-22T11:47:37.247Z,1005.58
2019-04-22T11:48:35.987Z,1005.54
2019-04-22T11:49:36.219Z,1005.55
2019-04-22T11:50:35.890Z,1005.52
2019-04-22T11:51:36.123Z,1005.53
2019-04-22T11:52:37.156Z,1005.46
2019-04-22T11:53:36.616Z,1005.44
2019-04-22T11:54:36.886Z,1005.39
2019-04-22T11:55:36.986Z,1005.32
2019-04-22T11:56:36.957Z,1005.51
2019-04-22T11:57:37.030Z,1005.35
2019-04-22T11:58:37.071Z,1005.24
2019-04-22T11:59:36.414Z,1005.29
2019-04-22T12:00:37.010Z,1005.26
2019-04-22T12:01:37.003Z,1005.26
2019-04-22T12:02:36.611Z,1005.23
2019-04-22T12:03:35.847Z,1005.26
2019-04-22T12:04:35.968Z,1005.19
2019-04-22T12:05:35.701Z,1005.23
2019-04-22T12:06:36.041Z,1005.27
2019-04-22T12:07:37.034Z,1005.23
2019-04-22T12:08:35.758Z,1005.15
2019-04-22T12:09:35.629Z,1005.15
2019-04-22T12:11:20.649Z,1005.07
2019-04-22T12:12:21.553Z,1005.11
2019-04-22T12:13:20.182Z,1005.11
2019-04-22T12:14:20.175Z,1005.05
2019-04-22T12:15:20.164Z,1005.07
2019-04-22T12:16:21.240Z,1005.10
2019-04-22T12:17:20.300Z,1005.00
2019-04-22T12:18:21.198Z,1004.99
2019-04-22T12:19:20.917Z,1005.01
2019-04-22T12:20:21.592Z,1004.97
2019-04-22T12:21:21.447Z,1004.99
2019-04-22T12:22:20.857Z,1004.97
2019-04-22T12:23:21.105Z,1004.92
2019-04-22T12:24:21.377Z,1004.93
2019-04-22T12:25:31.926Z,1004.89
2019-04-22T12:26:21.523Z,1004.92
2019-04-22T12:27:22.058Z,1004.89
2019-04-22T12:28:21.238Z,1004.84
2019-04-22T12:29:20.672Z,1004.88
2019-04-22T12:30:21.351Z,1004.84
2019-04-22T12:31:19.997Z,1004.82
2019-04-22T12:32:21.155Z,1004.82
2019-04-22T12:33:21.243Z,1004.74
2019-04-22T12:34:21.443Z,1004.76
2019-04-22T12:35:19.952Z,1004.71
2019-04-22T12:36:20.365Z,1004.75
2019-04-22T12:37:26.053Z,1004.68
2019-04-22T12:38:20.741Z,1004.75
2019-04-22T12:39:21.130Z,1004.70
2019-04-22T12:40:30.117Z,1004.61
2019-04-22T12:41:19.875Z,1004.66
2019-04-22T12:42:21.404Z,1004.54
2019-04-22T12:43:22.158Z,1004.57
2019-04-22T12:44:20.157Z,1004.58
2019-04-22T12:45:20.468Z,1004.58
2019-04-22T12:46:20.508Z,1004.56
2019-04-22T12:47:20.108Z,1004.47
2019-04-22T12:48:21.178Z,1004.65
2019-04-22T12:49:20.371Z,1004.50
2019-04-22T12:50:26.043Z,1004.47
2019-04-22T12:51:20.936Z,1004.46
2019-04-22T12:52:26.620Z,1004.44
2019-04-22T12:53:22.593Z,1004.43
2019-04-22T12:54:21.178Z,1004.49
2019-04-22T12:55:19.784Z,1004.40
2019-04-22T12:56:19.781Z,1004.36
2019-04-22T12:57:20.696Z,1004.38
2019-04-22T12:58:20.054Z,1004.33
2019-04-22T12:59:19.658Z,1004.19
2019-04-22T13:00:20.598Z,1004.36
2019-04-22T13:01:21.137Z,1004.32
2019-04-22T13:02:20.901Z,1004.34
2019-04-22T13:03:20.384Z,1004.36
2019-04-22T13:04:22.803Z,1004.26
2019-04-22T13:05:20.128Z,1004.26
2019-04-22T13:06:19.573Z,1004.24
2019-04-22T13:07:19.974Z,1004.18
2019-04-22T13:08:20.018Z,1004.22
2019-04-22T13:09:20.944Z,1004.16
2019-04-22T13:10:20.135Z,1004.13
2019-04-22T13:11:23.555Z,1004.07
2019-04-22T13:12:19.498Z,1004.15
2019-04-22T13:13:20.796Z,1004.02
2019-04-22T13:14:21.007Z,1003.99
2019-04-22T13:15:20.085Z,1003.97
2019-04-22T13:16:20.714Z,1004.00
2019-04-22T13:17:20.806Z,1003.96
2019-04-22T13:18:29.408Z,1004.00
2019-04-22T13:19:21.496Z,1003.98
2019-04-22T13:20:20.643Z,1004.00
2019-04-22T13:21:20.511Z,1003.91
2019-04-22T13:22:20.986Z,1003.90
2019-04-22T13:23:19.872Z,1003.88
2019-04-22T13:24:20.086Z,1003.87
2019-04-22T13:25:20.724Z,1003.83
2019-04-22T13:26:19.323Z,1003.78
2019-04-22T13:27:19.381Z,1003.84
2019-04-22T13:28:20.836Z,1003.80
2019-04-22T13:29:19.352Z,1003.82
2019-04-22T13:30:20.716Z,1003.79
2019-04-22T13:31:20.769Z,1003.84
2019-04-22T13:32:20.617Z,1003.76
2019-04-22T13:33:19.317Z,1003.77
2019-04-22T13:34:29.520Z,1003.80
2019-04-22T13:35:20.234Z,1003.74
2019-04-22T13:36:22.728Z,1003.72
2019-04-22T13:37:19.222Z,1003.68
2019-04-22T13:38:19.301Z,1003.73
2019-04-22T13:39:19.155Z,1003.69
2019-04-22T13:40:19.299Z,1003.66
2019-04-22T13:41:31.218Z,1003.62
2019-04-22T13:42:21.342Z,1003.60
2019-04-22T13:43:19.110Z,1003.54
2019-04-22T13:44:19.091Z,1003.53
2019-04-22T13:45:19.996Z,1003.65
2019-04-22T13:46:20.029Z,1003.57
2019-04-22T13:47:34.809Z,1003.51
2019-04-22T13:48:38.724Z,1003.53